createdAt,value
2022-11-09T00:01:57.746Z,7.70
2022-11-09T00:04:26.340Z,7.70
2022-11-09T00:06:54.910Z,7.70
2022-11-09T00:09:24.803Z,7.50
2022-11-09T00:11:54.825Z,7.70
2022-11-09T00:14:23.439Z,7.70
2022-11-09T00:16:51.916Z,7.60
2022-11-09T00:19:20.441Z,7.60
2022-11-09T00:21:48.876Z,7.60
2022-11-09T00:24:17.450Z,7.60
2022-11-09T00:26:47.453Z,7.60
2022-11-09T00:29:16.174Z,7.60
2022-11-09T00:31:44.631Z,7.50
2022-11-09T00:34:13.377Z,7.60
2022-11-09T00:36:43.984Z,7.60
2022-11-09T00:39:12.613Z,7.60
2022-11-09T00:41:41.132Z,7.60
2022-11-09T00:44:11.073Z,7.60
2022-11-09T00:46:39.874Z,7.60
2022-11-09T00:49:08.365Z,7.60
2022-11-09T00:51:36.788Z,7.70
2022-11-09T00:54:08.233Z,7.60
2022-11-09T00:56:36.920Z,7.50
2022-11-09T00:59:05.614Z,7.50
2022-11-09T01:01:35.779Z,7.40
2022-11-09T01:04:06.862Z,7.30
2022-11-09T01:06:35.555Z,7.20
2022-11-09T01:09:04.350Z,7.10
2022-11-09T01:11:32.875Z,7.20
2022-11-09T01:14:02.438Z,6.90
2022-11-09T01:16:31.006Z,6.80
2022-11-09T01:19:00.954Z,6.80
2022-11-09T01:21:29.895Z,6.70
2022-11-09T01:24:01.960Z,6.60
2022-11-09T01:26:30.750Z,6.60
2022-11-09T01:28:59.338Z,6.50
2022-11-09T01:31:27.895Z,6.50
2022-11-09T01:33:56.648Z,6.70
2022-11-09T01:36:27.488Z,6.50
2022-11-09T01:38:56.077Z,6.50
2022-11-09T01:41:25.342Z,6.50
2022-11-09T01:44:07.433Z,6.40
2022-11-09T01:46:42.531Z,6.50
2022-11-09T01:49:13.482Z,6.50
2022-11-09T01:51:47.289Z,6.50
2022-11-09T01:54:18.919Z,6.70
2022-11-09T01:56:50.027Z,6.50
2022-11-09T01:59:39.660Z,6.50
2022-11-09T02:02:08.320Z,6.50
2022-11-09T02:04:57.100Z,6.50
2022-11-09T02:07:27.990Z,6.50
2022-11-09T02:09:58.195Z,6.50
2022-11-09T02:12:27.449Z,6.50
2022-11-09T02:14:58.084Z,6.40
2022-11-09T02:17:28.898Z,6.40
2022-11-09T02:19:58.647Z,6.50
2022-11-09T02:22:28.629Z,6.40
2022-11-09T02:24:57.211Z,6.40
2022-11-09T02:27:25.977Z,6.40
2022-11-09T02:29:56.172Z,6.40
2022-11-09T02:32:27.560Z,6.40
2022-11-09T02:35:14.737Z,6.30
2022-11-09T02:37:46.875Z,6.30
2022-11-09T02:40:38.050Z,6.30
2022-11-09T02:43:08.265Z,6.20
2022-11-09T02:45:37.159Z,6.20
2022-11-09T02:48:07.414Z,6.20
2022-11-09T02:50:38.617Z,6.20
2022-11-09T02:53:26.790Z,6.20
2022-11-09T02:55:55.770Z,6.20
2022-11-09T02:58:24.508Z,6.20
2022-11-09T03:00:53.145Z,6.20
2022-11-09T03:03:23.290Z,6.20
2022-11-09T03:05:52.393Z,6.20
2022-11-09T03:08:21.057Z,6.20
2022-11-09T03:10:51.497Z,6.10
2022-11-09T03:13:20.291Z,6.20
2022-11-09T03:15:49.754Z,6.20
2022-11-09T03:18:18.301Z,6.10
2022-11-09T03:20:46.856Z,6.10
2022-11-09T03:23:18.565Z,6.10
2022-11-09T03:26:07.197Z,6.20
2022-11-09T03:28:36.628Z,6.10
2022-11-09T03:31:05.495Z,6.20
2022-11-09T03:33:34.275Z,6.20
2022-11-09T03:36:03.334Z,6.20
2022-11-09T03:38:31.884Z,6.30
2022-11-09T03:41:00.767Z,6.30
2022-11-09T03:43:31.618Z,6.30
2022-11-09T03:46:00.229Z,6.40
2022-11-09T03:48:28.664Z,6.40
2022-11-09T03:50:57.266Z,6.40
2022-11-09T03:53:25.703Z,6.50
2022-11-09T03:55:54.166Z,6.50
2022-11-09T03:58:22.691Z,6.50
2022-11-09T04:00:52.622Z,6.60
2022-11-09T04:03:21.541Z,6.60
2022-11-09T04:05:50.206Z,6.60
2022-11-09T04:08:18.612Z,6.60
2022-11-09T04:10:47.210Z,6.60
2022-11-09T04:13:15.613Z,6.60
2022-11-09T04:15:44.412Z,6.60
2022-11-09T04:18:15.164Z,6.70
2022-11-09T04:20:44.083Z,6.70
2022-11-09T04:23:13.525Z,6.70
2022-11-09T04:25:43.047Z,6.70
2022-11-09T04:28:19.998Z,6.70
2022-11-09T04:30:48.563Z,6.70
2022-11-09T04:33:18.805Z,6.70
2022-11-09T04:35:47.643Z,6.80
2022-11-09T04:38:16.343Z,6.80
2022-11-09T04:40:44.894Z,6.70
2022-11-09T04:43:14.228Z,6.70
2022-11-09T04:45:43.050Z,6.40
2022-11-09T04:48:12.296Z,6.30
2022-11-09T04:50:42.350Z,6.20
2022-11-09T04:53:11.815Z,6.00
2022-11-09T04:55:40.759Z,5.90
2022-11-09T04:58:09.336Z,5.90
2022-11-09T05:00:38.203Z,5.90
2022-11-09T05:03:07.519Z,5.80
2022-11-09T05:05:36.654Z,5.90
2022-11-09T05:08:07.239Z,5.90
2022-11-09T05:10:36.169Z,6.00
2022-11-09T05:13:05.445Z,6.10
2022-11-09T05:15:34.175Z,6.10
2022-11-09T05:18:02.978Z,6.20
2022-11-09T05:20:31.850Z,6.30
2022-11-09T05:23:17.770Z,6.30
2022-11-09T05:25:48.503Z,6.40
2022-11-09T05:28:17.157Z,6.50
2022-11-09T05:30:45.772Z,6.60
2022-11-09T05:33:15.022Z,6.60
2022-11-09T05:36:02.311Z,6.70
2022-11-09T05:38:30.727Z,6.80
2022-11-09T05:41:00.843Z,6.90
2022-11-09T05:43:29.314Z,7.00
2022-11-09T05:46:00.402Z,7.20
2022-11-09T05:48:32.632Z,7.20
2022-11-09T05:51:02.304Z,7.30
2022-11-09T05:53:30.909Z,7.30
2022-11-09T05:56:04.874Z,7.30
2022-11-09T05:58:52.052Z,7.50
2022-11-09T06:01:20.627Z,7.60
2022-11-09T06:03:49.134Z,7.70
2022-11-09T06:06:18.244Z,7.70
2022-11-09T06:08:46.936Z,7.80
2022-11-09T06:11:23.040Z,8.00
2022-11-09T06:13:52.886Z,8.00
2022-11-09T06:16:21.331Z,8.10
2022-11-09T06:18:49.997Z,8.10
2022-11-09T06:21:18.545Z,8.20
2022-11-09T06:23:47.063Z,8.30
2022-11-09T06:26:17.075Z,8.40
2022-11-09T06:28:45.813Z,8.50
2022-11-09T06:31:15.013Z,8.60
2022-11-09T06:33:43.594Z,8.70
2022-11-09T06:36:12.684Z,8.80
2022-11-09T06:38:41.740Z,8.90
2022-11-09T06:41:10.732Z,8.90
2022-11-09T06:43:40.628Z,9.00
2022-11-09T06:46:11.060Z,9.00
2022-11-09T06:48:40.215Z,9.10
2022-11-09T06:51:13.012Z,9.20
2022-11-09T06:53:41.891Z,9.30
2022-11-09T06:56:11.348Z,9.40
2022-11-09T06:58:42.020Z,9.40
2022-11-09T07:01:11.754Z,9.50
2022-11-09T07:03:40.584Z,9.60
2022-11-09T07:06:09.789Z,9.60
2022-11-09T07:08:38.304Z,9.80
2022-11-09T07:11:07.307Z,9.90
2022-11-09T07:13:36.084Z,10.00
2022-11-09T07:16:06.162Z,10.10
2022-11-09T07:18:35.495Z,10.30
2022-11-09T07:21:10.089Z,10.70
2022-11-09T07:23:42.485Z,11.00
2022-11-09T07:26:11.344Z,10.90
2022-11-09T07:28:39.959Z,11.10
2022-11-09T07:31:10.288Z,11.10
2022-11-09T07:33:39.280Z,11.20
2022-11-09T07:36:08.086Z,11.20
2022-11-09T07:38:36.695Z,11.30
2022-11-09T07:41:23.599Z,11.40
2022-11-09T07:43:52.208Z,11.60
2022-11-09T07:46:23.500Z,11.70
2022-11-09T07:48:52.096Z,11.80
2022-11-09T07:51:20.586Z,11.90
2022-11-09T07:53:49.164Z,12.00
2022-11-09T07:56:18.379Z,12.10
2022-11-09T07:58:46.856Z,12.20
2022-11-09T08:01:15.332Z,12.30
2022-11-09T08:03:45.361Z,12.50
2022-11-09T08:06:18.247Z,12.60
2022-11-09T08:08:48.134Z,12.70
2022-11-09T08:11:16.733Z,12.80
2022-11-09T08:13:45.295Z,13.30
2022-11-09T08:16:13.965Z,13.00
2022-11-09T08:18:42.419Z,13.20
2022-11-09T08:21:12.595Z,13.30
2022-11-09T08:23:41.493Z,13.50
2022-11-09T08:26:10.082Z,13.60
2022-11-09T08:28:38.471Z,13.70
2022-11-09T08:31:08.252Z,13.90
2022-11-09T08:33:37.559Z,14.40
2022-11-09T08:36:10.126Z,15.60
2022-11-09T08:38:40.114Z,17.40
2022-11-09T08:41:13.226Z,18.80
2022-11-09T08:43:42.288Z,20.10
2022-11-09T08:46:10.812Z,21.30
2022-11-09T08:48:39.252Z,22.20
2022-11-09T08:51:07.762Z,23.00
2022-11-09T08:53:36.248Z,23.60
2022-11-09T08:56:08.643Z,24.20
2022-11-09T08:58:38.386Z,24.80
2022-11-09T09:01:12.195Z,25.40
2022-11-09T09:03:44.078Z,25.70
2022-11-09T09:06:12.635Z,25.90
2022-11-09T09:08:41.111Z,26.10
2022-11-09T09:11:11.024Z,26.30
2022-11-09T09:13:43.327Z,26.40
2022-11-09T09:16:13.130Z,26.80
2022-11-09T09:18:41.712Z,27.10
2022-11-09T09:21:10.908Z,27.50
2022-11-09T09:23:39.572Z,27.70
2022-11-09T09:26:08.116Z,28.10
2022-11-09T09:28:38.244Z,28.70
2022-11-09T09:31:06.957Z,28.80
2022-11-09T09:33:35.455Z,28.90
2022-11-09T09:36:04.059Z,28.80
2022-11-09T09:38:32.634Z,28.90
2022-11-09T09:41:01.691Z,29.00
2022-11-09T09:43:32.533Z,29.30
2022-11-09T09:46:04.815Z,29.50
2022-11-09T09:48:38.254Z,29.70
2022-11-09T09:51:11.221Z,29.70
2022-11-09T09:53:44.575Z,29.80
2022-11-09T09:56:15.397Z,29.90
2022-11-09T09:58:46.357Z,30.00
2022-11-09T10:01:39.255Z,29.90
2022-11-09T10:04:16.881Z,30.10
2022-11-09T10:06:50.223Z,30.10
2022-11-09T10:09:25.365Z,30.10
2022-11-09T10:12:01.105Z,30.10
2022-11-09T10:14:45.592Z,30.10
2022-11-09T10:17:39.259Z,30.10
2022-11-09T10:20:23.373Z,30.20
2022-11-09T10:22:58.014Z,30.20
2022-11-09T10:25:57.694Z,30.10
2022-11-09T10:28:20.343Z,30.20
2022-11-09T10:30:51.447Z,30.30
2022-11-09T10:33:41.588Z,30.20
2022-11-09T10:36:19.008Z,30.20
2022-11-09T10:38:51.839Z,30.30
2022-11-09T10:41:44.680Z,30.40
2022-11-09T10:44:32.408Z,30.50
2022-11-09T10:47:20.848Z,30.30
2022-11-09T10:50:23.431Z,29.60
2022-11-09T10:53:15.498Z,28.50
2022-11-09T10:56:20.215Z,27.20
2022-11-09T10:59:40.831Z,26.00
2022-11-09T11:02:48.162Z,24.90
2022-11-09T11:05:37.733Z,23.90
2022-11-09T11:08:36.301Z,23.10
2022-11-09T11:11:34.331Z,22.50
2022-11-09T11:14:30.377Z,22.00
2022-11-09T11:17:27.949Z,21.60
2022-11-09T11:20:30.266Z,21.30
2022-11-09T11:23:21.221Z,21.10
2022-11-09T11:26:35.948Z,20.90
2022-11-09T11:29:48.548Z,20.70
2022-11-09T11:32:35.953Z,20.60
2022-11-09T11:35:32.439Z,20.50
2022-11-09T11:38:28.865Z,20.30
2022-11-09T11:41:39.663Z,20.20
2022-11-09T11:44:38.836Z,20.20
2022-11-09T11:47:29.840Z,20.10
2022-11-09T11:50:27.527Z,20.10
2022-11-09T11:53:38.235Z,20.00
2022-11-09T11:56:32.943Z,20.00
2022-11-09T11:59:51.298Z,19.90
2022-11-09T12:03:26.745Z,19.80
2022-11-09T12:06:25.747Z,19.80
2022-11-09T12:09:30.731Z,19.70
2022-11-09T12:12:32.329Z,19.60
2022-11-09T12:15:28.505Z,19.60
2022-11-09T12:18:29.835Z,19.60
2022-11-09T12:21:18.911Z,19.50
2022-11-09T12:24:17.259Z,19.50
2022-11-09T12:27:33.877Z,19.50
2022-11-09T12:30:24.242Z,19.50
2022-11-09T12:33:17.052Z,19.50
2022-11-09T12:36:10.965Z,19.50
2022-11-09T12:39:05.512Z,19.40
2022-11-09T12:41:55.472Z,19.40
2022-11-09T12:44:49.665Z,19.40
2022-11-09T12:47:42.017Z,19.40
2022-11-09T12:50:30.207Z,19.40
2022-11-09T12:53:19.437Z,19.40
2022-11-09T12:56:12.784Z,19.40
2022-11-09T12:59:21.236Z,19.30
2022-11-09T13:02:25.383Z,19.30
2022-11-09T13:05:31.023Z,19.30
2022-11-09T13:08:22.541Z,19.30
2022-11-09T13:11:19.641Z,19.30
2022-11-09T13:14:35.880Z,19.30
2022-11-09T13:18:03.173Z,19.30
2022-11-09T13:20:56.594Z,19.20
2022-11-09T13:24:03.248Z,19.20
2022-11-09T13:26:58.417Z,19.20
2022-11-09T13:29:56.642Z,19.10
2022-11-09T13:33:20.740Z,19.10
2022-11-09T13:36:21.290Z,19.00
2022-11-09T13:39:44.483Z,19.00
2022-11-09T13:42:34.629Z,18.90
2022-11-09T13:45:31.441Z,18.90
2022-11-09T13:48:44.581Z,18.80
2022-11-09T13:51:47.399Z,18.70
2022-11-09T13:54:39.632Z,18.60
2022-11-09T13:57:28.504Z,18.60
2022-11-09T14:00:23.698Z,18.60
2022-11-09T14:03:20.730Z,18.50
2022-11-09T14:06:13.488Z,18.40
2022-11-09T14:09:04.122Z,18.30
2022-11-09T14:12:06.533Z,18.20
2022-11-09T14:15:07.099Z,18.10
2022-11-09T14:18:09.055Z,18.00
2022-11-09T14:21:01.437Z,17.90
2022-11-09T14:23:50.463Z,17.80
2022-11-09T14:26:39.459Z,17.60
2022-11-09T14:29:33.316Z,17.50
2022-11-09T14:32:31.106Z,17.40
2022-11-09T14:35:28.862Z,17.30
2022-11-09T14:38:20.228Z,17.20
2022-11-09T14:41:23.047Z,17.10
2022-11-09T14:44:18.141Z,17.00
2022-11-09T14:47:07.564Z,16.90
2022-11-09T14:49:55.415Z,16.70
2022-11-09T14:52:43.603Z,16.70
2022-11-09T14:55:31.971Z,16.50
2022-11-09T14:58:20.496Z,16.40
2022-11-09T15:01:17.374Z,16.30
2022-11-09T15:04:10.075Z,16.20
2022-11-09T15:07:01.328Z,16.10
2022-11-09T15:09:51.444Z,15.90
2022-11-09T15:12:43.830Z,15.80
2022-11-09T15:15:35.916Z,15.70
2022-11-09T15:18:33.423Z,15.60
2022-11-09T15:21:33.932Z,15.50
2022-11-09T15:24:22.780Z,15.40
2022-11-09T15:27:30.459Z,15.30
2022-11-09T15:30:36.504Z,15.20
2022-11-09T15:33:30.764Z,15.10
2022-11-09T15:36:29.590Z,15.00
2022-11-09T15:39:19.162Z,14.90
2022-11-09T15:42:07.285Z,14.90
2022-11-09T15:44:56.951Z,14.80
2022-11-09T15:47:51.614Z,14.70
2022-11-09T15:50:41.056Z,14.60
2022-11-09T15:53:28.750Z,14.50
2022-11-09T15:56:19.334Z,14.50
2022-11-09T15:59:07.563Z,14.30
2022-11-09T16:01:55.360Z,14.20
2022-11-09T16:04:43.113Z,14.10
2022-11-09T16:07:32.381Z,14.00
2022-11-09T16:10:23.346Z,13.90
2022-11-09T16:13:12.497Z,13.80
2022-11-09T16:16:04.467Z,13.70
2022-11-09T16:18:51.612Z,13.60
2022-11-09T16:21:40.440Z,13.50
2022-11-09T16:24:29.498Z,13.40
2022-11-09T16:27:43.375Z,13.30
2022-11-09T16:30:25.085Z,13.30
2022-11-09T16:33:12.446Z,13.20
2022-11-09T16:36:02.574Z,13.10
2022-11-09T16:38:52.937Z,13.00
2022-11-09T16:41:43.093Z,12.90
2022-11-09T16:44:35.526Z,12.80
2022-11-09T16:47:23.318Z,11.90
2022-11-09T16:50:11.229Z,12.60
2022-11-09T16:52:58.750Z,12.50
2022-11-09T16:55:46.029Z,12.40
2022-11-09T16:58:34.719Z,12.30
2022-11-09T17:01:23.734Z,12.30
2022-11-09T17:04:11.641Z,12.20
2022-11-09T17:06:58.957Z,12.20
2022-11-09T17:09:46.309Z,12.10
2022-11-09T17:12:34.205Z,12.10
2022-11-09T17:15:23.415Z,12.00
2022-11-09T17:18:13.103Z,12.00
2022-11-09T17:21:01.180Z,11.90
2022-11-09T17:23:49.686Z,11.90
2022-11-09T17:26:37.892Z,11.80
2022-11-09T17:29:25.269Z,11.80
2022-11-09T17:32:14.429Z,11.70
2022-11-09T17:35:01.762Z,11.70
2022-11-09T17:37:49.627Z,11.70
2022-11-09T17:40:36.914Z,11.60
2022-11-09T17:43:24.325Z,11.60
2022-11-09T17:46:13.280Z,11.60
2022-11-09T17:49:07.048Z,11.60
2022-11-09T17:51:56.984Z,11.50
2022-11-09T17:54:44.535Z,11.50
2022-11-09T17:57:32.965Z,11.50
2022-11-09T18:00:21.257Z,11.50
2022-11-09T18:03:08.880Z,11.40
2022-11-09T18:05:57.666Z,11.30
2022-11-09T18:08:45.644Z,11.30
2022-11-09T18:11:34.060Z,11.20
2022-11-09T18:14:21.710Z,11.20
2022-11-09T18:17:09.772Z,11.10
2022-11-09T18:19:57.987Z,11.00
2022-11-09T18:22:46.875Z,11.00
2022-11-09T18:25:34.079Z,10.90
2022-11-09T18:28:21.932Z,10.90
2022-11-09T18:31:11.295Z,10.80
2022-11-09T18:33:58.484Z,10.80
2022-11-09T18:36:46.130Z,10.80
2022-11-09T18:39:35.291Z,10.70
2022-11-09T18:42:22.918Z,10.70
2022-11-09T18:45:11.765Z,10.70
2022-11-09T18:47:59.137Z,10.70
2022-11-09T18:50:46.390Z,10.60
2022-11-09T18:53:37.459Z,10.60
2022-11-09T18:56:27.043Z,10.60
2022-11-09T18:59:14.954Z,10.50
2022-11-09T19:02:02.615Z,10.40
2022-11-09T19:04:50.272Z,10.40
2022-11-09T19:07:37.762Z,10.30
2022-11-09T19:10:25.227Z,10.20
2022-11-09T19:13:14.271Z,10.10
2022-11-09T19:16:02.062Z,10.10
2022-11-09T19:18:50.141Z,10.00
2022-11-09T19:21:41.030Z,10.00
2022-11-09T19:24:31.257Z,10.30
2022-11-09T19:27:18.762Z,9.90
2022-11-09T19:30:09.990Z,9.90
2022-11-09T19:32:57.445Z,9.80
2022-11-09T19:35:56.781Z,9.80
2022-11-09T19:38:52.714Z,9.80
2022-11-09T19:41:40.969Z,9.80
2022-11-09T19:44:28.249Z,9.80
2022-11-09T19:47:17.738Z,9.70
2022-11-09T19:50:06.316Z,9.70
2022-11-09T19:52:53.847Z,9.70
2022-11-09T19:55:41.143Z,9.70
2022-11-09T19:58:28.608Z,9.60
2022-11-09T20:01:16.202Z,9.60
2022-11-09T20:04:09.912Z,9.60
2022-11-09T20:06:57.725Z,9.50
2022-11-09T20:09:45.492Z,9.50
2022-11-09T20:12:50.976Z,9.40
2022-11-09T20:15:38.671Z,9.40
2022-11-09T20:18:26.115Z,9.30
2022-11-09T20:21:15.960Z,9.30
2022-11-09T20:24:03.609Z,9.30
2022-11-09T20:26:50.902Z,9.20
2022-11-09T20:29:38.142Z,9.20
2022-11-09T20:32:25.586Z,9.10
2022-11-09T20:35:12.792Z,9.00
2022-11-09T20:38:01.788Z,9.00
2022-11-09T20:40:55.962Z,9.00
2022-11-09T20:43:43.958Z,8.90
2022-11-09T20:46:35.672Z,8.90
2022-11-09T20:49:24.224Z,8.80
2022-11-09T20:52:11.825Z,8.80
2022-11-09T20:55:01.885Z,8.80
2022-11-09T20:57:49.114Z,8.80
2022-11-09T21:00:43.822Z,8.80
2022-11-09T21:03:31.251Z,8.80
2022-11-09T21:06:18.870Z,8.80
2022-11-09T21:09:06.341Z,8.80
2022-11-09T21:12:12.933Z,8.80
2022-11-09T21:15:00.607Z,8.80
2022-11-09T21:17:48.477Z,8.80
2022-11-09T21:20:36.315Z,8.70
2022-11-09T21:23:41.249Z,8.70
2022-11-09T21:26:46.534Z,8.70
2022-11-09T21:29:53.977Z,8.70
2022-11-09T21:32:42.125Z,8.70
2022-11-09T21:35:29.728Z,8.70
2022-11-09T21:38:16.841Z,8.70
2022-11-09T21:41:25.714Z,8.70
2022-11-09T21:44:14.262Z,8.60
2022-11-09T21:47:03.964Z,8.60
2022-11-09T21:49:51.526Z,8.60
2022-11-09T21:52:38.769Z,8.60
2022-11-09T21:55:26.116Z,8.60
2022-11-09T21:58:13.588Z,8.50
2022-11-09T22:01:02.629Z,8.50
2022-11-09T22:03:51.999Z,8.50
2022-11-09T22:06:40.703Z,8.50
2022-11-09T22:09:35.741Z,8.40
2022-11-09T22:12:44.618Z,8.20
2022-11-09T22:15:50.036Z,8.10
2022-11-09T22:18:55.563Z,7.90
2022-11-09T22:21:44.589Z,7.80
2022-11-09T22:24:32.698Z,7.80
2022-11-09T22:27:20.292Z,7.80
2022-11-09T22:30:08.963Z,7.70
2022-11-09T22:32:56.261Z,7.70
2022-11-09T22:35:43.622Z,7.70
2022-11-09T22:38:33.373Z,7.70
2022-11-09T22:41:20.785Z,7.80
2022-11-09T22:44:08.302Z,7.70
2022-11-09T22:46:56.053Z,7.60
2022-11-09T22:49:43.388Z,7.60
2022-11-09T22:52:30.678Z,7.50
2022-11-09T22:55:20.306Z,7.40
2022-11-09T22:58:09.134Z,7.30
2022-11-09T23:00:57.032Z,7.30
2022-11-09T23:03:44.681Z,7.20
2022-11-09T23:06:34.038Z,7.10
2022-11-09T23:09:21.337Z,7.00
2022-11-09T23:12:10.153Z,7.00
2022-11-09T23:15:06.405Z,6.90
2022-11-09T23:18:12.301Z,6.80
2022-11-09T23:21:01.835Z,6.70
2022-11-09T23:23:50.386Z,6.70
2022-11-09T23:26:37.897Z,6.60
2022-11-09T23:29:26.812Z,6.60
2022-11-09T23:32:14.310Z,6.60
2022-11-09T23:35:01.619Z,6.60
2022-11-09T23:37:48.841Z,6.60
2022-11-09T23:40:37.063Z,6.60
2022-11-09T23:43:24.755Z,6.60
2022-11-09T23:46:15.330Z,6.60
2022-11-09T23:49:02.979Z,6.60
2022-11-09T23:51:50.292Z,6.60
2022-11-09T23:54:37.609Z,6.50
2022-11-09T23:57:24.759Z,6.50
